createdAt,value
2024-02-26T00:05:36.012Z,98540.94
2024-02-26T00:20:38.073Z,98537.69
2024-02-26T00:35:40.352Z,98528.25
2024-02-26T00:50:42.473Z,98518.09
2024-02-26T01:05:44.746Z,98519.09
2024-02-26T01:20:46.869Z,98499.88
2024-02-26T01:35:49.116Z,98479.03
2024-02-26T01:50:51.703Z,98469.72
2024-02-26T02:05:53.851Z,98464.25
2024-02-26T02:20:57.800Z,98453.84
2024-02-26T02:36:00.316Z,98446.50
2024-02-26T02:51:02.295Z,98425.28
2024-02-26T03:06:04.797Z,98411.16
2024-02-26T03:21:06.789Z,98400.97
2024-02-26T03:36:08.907Z,98382.81
2024-02-26T03:51:11.954Z,98383.69
2024-02-26T04:06:16.618Z,98383.69
2024-02-26T04:21:18.488Z,98369.53
2024-02-26T04:36:20.378Z,98376.88
2024-02-26T04:51:22.339Z,98378.66
2024-02-26T05:06:24.334Z,98383.97
2024-02-26T05:21:26.494Z,98379.00
2024-02-26T05:36:29.991Z,98386.84
2024-02-26T05:51:32.284Z,98409.34
2024-02-26T06:06:34.476Z,98427.81
2024-02-26T06:21:36.607Z,98441.38
2024-02-26T06:36:38.619Z,98440.13
2024-02-26T06:51:40.662Z,98455.00
2024-02-26T07:06:44.355Z,98440.63
2024-02-26T07:21:46.709Z,98447.63
2024-02-26T07:36:48.803Z,98467.50
2024-02-26T07:51:50.917Z,98454.38
2024-02-26T08:06:53.113Z,98469.59
2024-02-26T08:21:55.022Z,98473.16
2024-02-26T08:36:56.968Z,98458.28
2024-02-26T08:51:58.964Z,98466.09
2024-02-26T09:07:00.910Z,98455.50
2024-02-26T09:22:02.847Z,98457.94
2024-02-26T09:37:12.287Z,98458.81
2024-02-26T09:52:20.610Z,98468.41
2024-02-26T10:07:23.101Z,98466.03
2024-02-26T10:22:25.025Z,98479.63
2024-02-26T10:37:29.988Z,98466.81
2024-02-26T10:52:37.101Z,98457.63
2024-02-26T11:07:40.166Z,98452.03
2024-02-26T11:22:42.216Z,98445.75
2024-02-26T11:37:54.177Z,98441.78
2024-02-26T11:53:21.184Z,98423.16
2024-02-26T12:08:24.597Z,98414.00
2024-02-26T12:23:26.508Z,98410.56
2024-02-26T12:38:29.024Z,98396.78
2024-02-26T12:53:32.125Z,98384.91
2024-02-26T13:08:34.815Z,98398.84
2024-02-26T13:23:36.865Z,98400.25
2024-02-26T13:38:41.077Z,98416.47
2024-02-26T13:53:44.202Z,98424.53
2024-02-26T14:08:46.591Z,98433.47
2024-02-26T14:23:48.326Z,98441.53
2024-02-26T14:38:50.273Z,98450.97
2024-02-26T14:53:52.623Z,98446.38
2024-02-26T15:24:12.827Z,98488.47
2024-02-26T15:39:14.806Z,98490.78
2024-02-26T15:54:16.810Z,98508.47
2024-02-26T16:09:18.944Z,98505.25
2024-02-26T16:24:21.136Z,98509.38
2024-02-26T16:39:23.495Z,98543.47
2024-02-26T16:54:27.200Z,98553.34
2024-02-26T17:09:29.150Z,98575.03
2024-02-26T17:24:31.176Z,98585.63
2024-02-26T17:39:33.194Z,98595.94
2024-02-26T17:54:35.498Z,98608.22
2024-02-26T18:09:39.606Z,98623.69
2024-02-26T18:24:42.314Z,98634.34
2024-02-26T18:39:45.918Z,98616.03
2024-02-26T18:54:49.035Z,98619.47
2024-02-26T19:09:54.752Z,98652.44
2024-02-26T19:24:58.199Z,98662.47
2024-02-26T19:40:04.316Z,98690.50
2024-02-26T19:55:10.033Z,98708.47
2024-02-26T20:10:15.392Z,98721.34
2024-02-26T20:25:19.167Z,98722.31
2024-02-26T20:40:22.625Z,98728.56
2024-02-26T20:55:26.161Z,98743.59
2024-02-26T21:10:30.847Z,98752.75
2024-02-26T21:25:32.646Z,98765.69
2024-02-26T21:40:34.588Z,98774.38
2024-02-26T21:55:36.589Z,98796.59
2024-02-26T22:10:40.280Z,98781.00
2024-02-26T22:25:42.326Z,98779.19
2024-02-26T22:40:44.645Z,98797.00
2024-02-26T22:55:51.802Z,98815.78
2024-02-26T23:10:53.737Z,98832.59
2024-02-26T23:25:55.742Z,98847.94
2024-02-26T23:40:58.524Z,98850.16
2024-02-26T23:56:00.406Z,98856.31
